Time;durP1;ratioP1;P1;durP2;ratioP2;P2;SDS_P1;SDS_P2;PMS_P1;PMS_P2;Temp;Humidity;BMP_temperature;BMP_pressure;BME280_temperature;BME280_humidity;BME280_pressure;Samples;Min_cycle;Max_cycle;Signal;HPM_P1;HPM_P2
2024/01/28 00:01:41;;;;;;;17.10;3.00;;;;;;;4.91;82.64;102207.39;108292;1269;22565;-76
2024/01/28 00:04:31;;;;;;;20.40;3.30;;;;;;;4.89;82.61;102203.13;108367;1249;22987;-75
2024/01/28 00:07:22;;;;;;;23.80;3.90;;;;;;;4.89;82.65;102203.67;108354;1262;22662;-75
2024/01/28 00:10:14;;;;;;;20.30;4.00;;;;;;;4.89;82.77;102203.36;108147;1269;23171;-75
2024/01/28 00:13:05;;;;;;;20.90;3.50;;;;;;;4.87;82.76;102205.48;108083;1254;23254;-75
2024/01/28 00:15:56;;;;;;;18.30;3.30;;;;;;;4.87;82.76;102204.38;108203;1268;24077;-75
2024/01/28 00:18:45;;;;;;;;;;;;;;;4.85;82.82;102205.65;108418;1268;22554;-75
2024/01/28 00:21:36;;;;;;;15.60;2.30;;;;;;;4.83;82.87;102207.70;108132;1268;22661;-76
2024/01/28 00:24:25;;;;;;;;;;;;;;;4.81;82.97;102203.34;108110;1268;25381;-75
2024/01/28 00:27:16;;;;;;;23.30;3.00;;;;;;;4.78;83.01;102203.66;108107;1268;22774;-75
2024/01/28 00:30:10;;;;;;;25.10;2.90;;;;;;;4.77;83.08;102199.30;108201;1268;22525;-75
2024/01/28 00:33:00;;;;;;;27.10;3.60;;;;;;;4.75;83.19;102194.80;108168;1268;24065;-75
2024/01/28 00:36:25;;;;;;;16.70;2.40;;;;;;;4.74;83.18;102190.37;108141;1268;24362;-76
2024/01/28 00:39:16;;;;;;;18.80;3.50;;;;;;;4.72;83.21;102183.96;108364;1268;23248;-76
2024/01/28 00:42:07;;;;;;;19.50;2.80;;;;;;;4.72;83.28;102180.70;108251;1268;22539;-76
2024/01/28 00:44:58;;;;;;;25.30;3.70;;;;;;;4.69;83.37;102178.66;108361;1268;24326;-76
2024/01/28 00:47:48;;;;;;;19.30;3.70;;;;;;;4.66;83.41;102184.42;108278;1268;25339;-76
2024/01/28 00:50:39;;;;;;;20.50;3.40;;;;;;;4.65;83.49;102187.59;108294;1268;23138;-76
2024/01/28 00:53:30;;;;;;;21.20;2.90;;;;;;;4.63;83.47;102181.73;108319;1268;22777;-76
2024/01/28 00:56:21;;;;;;;25.10;3.30;;;;;;;4.63;83.50;102185.76;108301;1268;22773;-76
2024/01/28 00:59:12;;;;;;;18.20;2.40;;;;;;;4.62;83.56;102182.12;108324;1268;24255;-76
2024/01/28 01:02:03;;;;;;;22.20;2.50;;;;;;;4.62;83.67;102193.11;108312;1268;22767;-76
2024/01/28 01:04:54;;;;;;;22.10;3.00;;;;;;;4.59;83.77;102191.20;108143;1269;27010;-76
2024/01/28 01:07:45;;;;;;;19.40;2.20;;;;;;;4.56;83.78;102193.09;108168;1269;22556;-76
2024/01/28 01:10:34;;;;;;;;;;;;;;;4.54;83.91;102195.86;108226;1270;22514;-76
2024/01/28 01:13:25;;;;;;;14.80;2.70;;;;;;;4.51;84.11;102194.27;108046;1269;22616;-76
2024/01/28 01:16:17;;;;;;;21.40;2.10;;;;;;;4.49;84.43;102194.09;108282;1270;23404;-76
2024/01/28 01:19:08;;;;;;;20.00;2.10;;;;;;;4.45;84.56;102193.61;108171;1269;22697;-76
2024/01/28 01:22:01;;;;;;;17.70;2.90;;;;;;;4.43;84.67;102186.33;108232;1269;22701;-76
2024/01/28 01:24:52;;;;;;;24.10;2.70;;;;;;;4.40;84.79;102184.89;108047;1269;25379;-76
2024/01/28 01:27:45;;;;;;;24.20;2.80;;;;;;;4.38;85.03;102189.55;108078;1269;22647;-77
2024/01/28 01:30:36;;;;;;;21.30;2.30;;;;;;;4.36;84.84;102191.05;108193;1270;23142;-76
2024/01/28 01:33:27;;;;;;;16.30;2.20;;;;;;;4.35;85.13;102188.52;108217;1269;24373;-77
2024/01/28 01:36:19;;;;;;;15.60;2.00;;;;;;;4.32;85.12;102184.47;108173;1269;22981;-77
2024/01/28 01:39:10;;;;;;;15.90;2.30;;;;;;;4.32;85.12;102183.37;108033;1269;22565;-76
2024/01/28 01:42:01;;;;;;;22.40;3.40;;;;;;;4.30;84.94;102185.02;108291;1270;22847;-76
2024/01/28 01:44:52;;;;;;;17.80;1.90;;;;;;;4.30;85.11;102190.15;108229;1269;24369;-76
2024/01/28 01:47:43;;;;;;;19.50;2.80;;;;;;;4.27;85.18;102184.45;108198;1269;24168;-76
2024/01/28 01:50:34;;;;;;;16.20;2.10;;;;;;;4.26;85.16;102180.66;108218;1269;25406;-76
2024/01/28 01:53:25;;;;;;;20.10;1.90;;;;;;;4.24;85.28;102175.36;108273;1269;22738;-77
2024/01/28 01:56:16;;;;;;;15.90;2.10;;;;;;;4.23;85.08;102175.34;108310;1246;22576;-76
2024/01/28 01:59:08;;;;;;;16.30;1.80;;;;;;;4.23;85.17;102175.90;108241;1270;22647;-77
2024/01/28 02:02:00;;;;;;;13.70;1.90;;;;;;;4.23;85.07;102177.39;108273;1269;22729;-76
2024/01/28 02:04:51;;;;;;;13.60;2.30;;;;;;;4.23;85.10;102181.27;108311;1269;24239;-76
2024/01/28 02:07:42;;;;;;;17.90;2.00;;;;;;;4.23;85.15;102187.52;108230;1269;22640;-76
2024/01/28 02:10:33;;;;;;;22.00;2.50;;;;;;;4.22;85.14;102195.58;108224;1269;22648;-76
2024/01/28 02:13:24;;;;;;;14.80;2.40;;;;;;;4.21;85.15;102201.10;108219;1269;24327;-76
2024/01/28 02:16:15;;;;;;;18.30;2.30;;;;;;;4.21;85.18;102198.73;108263;1269;25473;-76
2024/01/28 02:19:06;;;;;;;20.40;3.30;;;;;;;4.21;85.13;102195.64;108180;1269;24372;-76
2024/01/28 02:21:57;;;;;;;17.30;2.20;;;;;;;4.20;85.16;102200.62;108267;1269;22674;-77
2024/01/28 02:24:48;;;;;;;21.70;2.20;;;;;;;4.18;85.20;102206.29;108205;1269;25410;-76
2024/01/28 02:27:39;;;;;;;20.80;2.50;;;;;;;4.18;85.24;102202.50;108211;1269;22524;-76
2024/01/28 02:30:32;;;;;;;18.10;1.90;;;;;;;4.16;85.29;102200.84;108299;1269;22658;-76
2024/01/28 02:33:23;;;;;;;19.40;2.20;;;;;;;4.13;85.25;102201.70;108265;1269;22631;-76
2024/01/28 02:36:14;;;;;;;18.90;2.00;;;;;;;4.09;85.28;102202.39;108267;1269;26173;-76
2024/01/28 02:39:04;;;;;;;;;;;;;;;4.09;85.35;102203.96;108278;1269;24232;-76
2024/01/28 02:41:54;;;;;;;14.30;2.40;;;;;;;4.04;85.39;102202.27;108213;1269;25637;-77
2024/01/28 02:44:45;;;;;;;21.20;1.80;;;;;;;4.01;85.32;102200.52;108239;1269;22560;-76
2024/01/28 02:47:36;;;;;;;16.20;2.00;;;;;;;3.97;85.32;102203.74;108274;1269;24362;-75
2024/01/28 02:50:27;;;;;;;18.80;2.10;;;;;;;3.94;85.37;102207.91;108215;1269;25431;-76
2024/01/28 02:53:18;;;;;;;17.80;2.30;;;;;;;3.91;85.40;102214.61;108168;1269;23458;-76
2024/01/28 02:56:09;;;;;;;16.00;1.60;;;;;;;3.89;85.54;102219.02;108133;1269;24656;-76
2024/01/28 02:59:01;;;;;;;14.90;1.90;;;;;;;3.87;85.64;102225.80;107977;1265;22739;-76
2024/01/28 03:01:53;;;;;;;21.00;2.40;;;;;;;3.86;85.64;102229.50;108214;1269;25400;-76
2024/01/28 03:04:44;;;;;;;17.90;1.70;;;;;;;3.88;85.70;102239.14;108232;1269;24351;-76
2024/01/28 03:07:35;;;;;;;15.80;2.30;;;;;;;3.88;85.75;102243.56;108223;1269;23262;-76
2024/01/28 03:10:26;;;;;;;28.60;2.80;;;;;;;3.87;85.80;102240.87;108182;1246;25388;-76
2024/01/28 03:13:17;;;;;;;15.80;1.90;;;;;;;3.88;85.80;102240.09;108213;1269;22625;-76
2024/01/28 03:16:10;;;;;;;13.90;1.60;;;;;;;3.89;85.87;102238.13;108195;1269;24157;-76
2024/01/28 03:19:02;;;;;;;14.30;2.70;;;;;;;3.88;85.85;102239.06;108238;1269;23762;-76
2024/01/28 03:21:53;;;;;;;15.70;1.60;;;;;;;3.88;85.97;102236.38;107985;1269;22643;-76
2024/01/28 03:24:42;;;;;;;;;;;;;;;3.87;85.91;102236.92;108091;1269;22794;-76
2024/01/28 03:27:33;;;;;;;18.90;3.00;;;;;;;3.88;85.97;102238.02;108160;1269;22625;-76
2024/01/28 03:30:24;;;;;;;20.30;2.10;;;;;;;3.89;85.98;102236.16;108060;1269;24361;-76
2024/01/28 03:33:15;;;;;;;15.60;1.70;;;;;;;3.88;85.95;102235.44;108288;1269;22527;-76
2024/01/28 03:36:07;;;;;;;19.60;1.70;;;;;;;3.87;85.94;102237.55;108244;1269;22918;-76
2024/01/28 03:38:57;;;;;;;22.80;2.80;;;;;;;3.88;85.86;102245.22;108173;1269;23893;-77
2024/01/28 03:41:49;;;;;;;15.90;1.40;;;;;;;3.89;85.98;102248.06;108222;1269;22812;-76
2024/01/28 03:44:39;;;;;;;21.40;2.30;;;;;;;3.87;86.00;102256.19;108054;1269;22779;-76
2024/01/28 03:47:32;;;;;;;22.20;2.10;;;;;;;3.86;86.02;102258.86;108082;1269;23297;-76
2024/01/28 03:50:24;;;;;;;18.20;2.70;;;;;;;3.85;86.05;102265.16;108138;1269;22728;-77
2024/01/28 03:53:15;;;;;;;20.90;2.90;;;;;;;3.84;86.08;102267.69;108071;1269;22582;-77
2024/01/28 03:56:09;;;;;;;18.60;2.60;;;;;;;3.82;86.07;102271.94;108139;1263;22672;-76
2024/01/28 03:59:00;;;;;;;20.30;2.70;;;;;;;3.80;86.08;102272.31;108088;1269;23006;-76
2024/01/28 04:01:51;;;;;;;19.40;2.80;;;;;;;3.79;86.12;102274.20;108191;1268;23299;-76
2024/01/28 04:04:42;;;;;;;30.40;3.10;;;;;;;3.76;86.17;102275.52;108053;1269;25468;-77
2024/01/28 04:07:33;;;;;;;25.20;2.70;;;;;;;3.76;86.17;102276.70;108259;1268;24083;-77
2024/01/28 04:10:24;;;;;;;22.50;2.60;;;;;;;3.74;86.17;102276.22;108154;1268;24209;-77
2024/01/28 04:13:15;;;;;;;18.00;3.20;;;;;;;3.73;86.27;102269.10;108187;1268;24292;-76
2024/01/28 04:16:07;;;;;;;25.50;3.00;;;;;;;3.71;86.29;102263.64;108188;1268;25470;-76
2024/01/28 04:18:58;;;;;;;22.20;3.20;;;;;;;3.71;86.28;102268.38;108389;1268;22675;-76
2024/01/28 04:21:49;;;;;;;23.00;3.70;;;;;;;3.70;86.28;102267.83;108262;1268;22548;-76
2024/01/28 04:24:40;;;;;;;34.00;4.20;;;;;;;3.68;86.18;102277.68;108294;1268;22530;-76
2024/01/28 04:27:31;;;;;;;23.60;2.90;;;;;;;3.64;86.24;102283.56;108039;1268;22543;-77
2024/01/28 04:30:23;;;;;;;19.50;3.40;;;;;;;3.64;86.31;102288.52;108336;1268;25335;-76
2024/01/28 04:33:14;;;;;;;20.70;3.20;;;;;;;3.65;86.36;102294.30;108304;1268;25267;-76
2024/01/28 04:36:05;;;;;;;21.20;3.90;;;;;;;3.61;86.29;102292.70;108295;1268;22589;-76
2024/01/28 04:38:56;;;;;;;25.80;4.20;;;;;;;3.57;86.36;102292.02;108340;1268;22671;-76
2024/01/28 04:41:46;;;;;;;;;;;;;;;3.52;86.52;102287.56;108229;1268;25322;-76
2024/01/28 04:44:36;;;;;;;18.10;3.50;;;;;;;3.49;86.58;102287.70;108280;1268;22770;-76
2024/01/28 04:47:28;;;;;;;19.30;3.80;;;;;;;3.46;86.62;102296.35;108249;1268;22579;-76
2024/01/28 04:50:18;;;;;;;25.90;3.00;;;;;;;3.44;86.66;102298.77;107953;1265;22578;-76
2024/01/28 04:53:09;;;;;;;25.90;3.60;;;;;;;3.42;86.78;102304.91;107880;1268;22652;-77
2024/01/28 04:56:01;;;;;;;20.20;3.50;;;;;;;3.41;86.85;102310.73;107766;1269;24327;-76
2024/01/28 04:58:52;;;;;;;26.40;4.00;;;;;;;3.37;86.87;102312.73;107954;1268;24267;-77
2024/01/28 05:01:43;;;;;;;25.50;4.60;;;;;;;3.36;87.00;102308.55;107794;1269;22639;-76
2024/01/28 05:04:34;;;;;;;22.10;3.30;;;;;;;3.35;87.05;102307.36;107804;1269;22532;-78
2024/01/28 05:07:25;;;;;;;18.10;2.80;;;;;;;3.35;87.12;102309.34;107888;1268;22973;-77
2024/01/28 05:10:16;;;;;;;21.60;3.30;;;;;;;3.34;87.15;102317.46;107844;1260;24184;-77
2024/01/28 05:13:08;;;;;;;27.00;3.60;;;;;;;3.33;87.15;102316.58;107920;1265;22615;-76
2024/01/28 05:15:59;;;;;;;19.50;3.60;;;;;;;3.34;87.20;102330.39;107859;1268;24176;-76
2024/01/28 05:18:51;;;;;;;21.70;4.30;;;;;;;3.33;87.22;102334.02;107924;1268;24245;-78
2024/01/28 05:21:42;;;;;;;20.70;3.20;;;;;;;3.34;87.33;102332.44;108055;1269;24342;-77
2024/01/28 05:24:33;;;;;;;24.80;3.40;;;;;;;3.33;87.34;102331.23;108072;1269;24074;-76
2024/01/28 05:27:24;;;;;;;31.70;5.90;;;;;;;3.31;87.44;102324.67;108165;1263;26153;-77
2024/01/28 05:30:16;;;;;;;25.00;5.90;;;;;;;3.29;87.46;102318.98;108201;1263;26073;-78
2024/01/28 05:33:07;;;;;;;32.10;7.10;;;;;;;3.28;87.52;102318.95;107840;1262;24319;-78
2024/01/28 05:35:58;;;;;;;35.20;7.90;;;;;;;3.28;87.59;102321.66;107805;1269;24236;-78
2024/01/28 05:38:49;;;;;;;36.70;7.80;;;;;;;3.28;87.61;102318.27;107935;1269;25483;-77
2024/01/28 05:41:40;;;;;;;39.20;8.40;;;;;;;3.26;87.59;102320.30;107859;1258;22740;-77
2024/01/28 05:44:30;;;;;;;32.60;7.10;;;;;;;3.26;87.66;102318.00;107989;1269;22566;-78
2024/01/28 05:47:21;;;;;;;38.80;9.30;;;;;;;3.26;87.66;102320.69;107839;1269;22632;-78
2024/01/28 05:50:13;;;;;;;42.00;11.60;;;;;;;3.26;87.71;102321.56;107815;1269;23281;-77
2024/01/28 05:53:04;;;;;;;53.70;12.30;;;;;;;3.27;87.72;102313.98;107974;1269;25392;-77
2024/01/28 05:55:56;;;;;;;41.60;8.60;;;;;;;3.28;87.78;102316.44;108029;1268;22587;-77
2024/01/28 05:58:47;;;;;;;29.50;6.40;;;;;;;3.28;87.72;102326.30;107925;1269;24353;-77
2024/01/28 06:01:37;;;;;;;18.70;3.60;;;;;;;3.30;87.72;102334.13;107833;1269;22587;-78
2024/01/28 06:04:28;;;;;;;26.80;3.90;;;;;;;3.28;87.74;102341.05;107885;1269;22535;-78
2024/01/28 06:07:19;;;;;;;25.10;4.90;;;;;;;3.26;87.70;102346.23;107932;1269;24338;-78
2024/01/28 06:10:11;;;;;;;28.00;6.50;;;;;;;3.26;87.85;102348.45;108096;1269;24212;-78
2024/01/28 06:13:02;;;;;;;31.00;7.70;;;;;;;3.24;87.89;102347.33;107957;1269;25388;-77
2024/01/28 06:15:54;;;;;;;27.10;6.60;;;;;;;3.24;87.84;102348.90;107904;1269;25549;-77
2024/01/28 06:18:45;;;;;;;27.70;5.60;;;;;;;3.24;87.88;102345.02;107988;1269;22629;-78
2024/01/28 06:21:35;;;;;;;35.70;6.60;;;;;;;3.23;87.92;102343.21;107827;1269;25478;-78
2024/01/28 06:24:27;;;;;;;29.40;5.30;;;;;;;3.23;87.92;102342.11;107917;1269;24243;-77
2024/01/28 06:27:18;;;;;;;26.30;3.80;;;;;;;3.25;87.97;102348.04;107897;1269;22722;-77
2024/01/28 06:30:13;;;;;;;25.00;4.60;;;;;;;3.26;87.90;102348.05;108006;1265;22532;-78
2024/01/28 06:33:03;;;;;;;19.90;4.20;;;;;;;3.27;87.92;102343.01;109293;1268;22539;-79
2024/01/28 06:35:54;;;;;;;33.10;5.50;;;;;;;3.30;87.97;102347.45;108006;1265;25397;-78
2024/01/28 06:38:47;;;;;;;33.90;6.70;;;;;;;3.35;88.02;102351.84;108060;1269;24208;-78
2024/01/28 06:41:41;;;;;;;34.50;6.40;;;;;;;3.37;87.83;102353.29;108048;1269;22744;-79
2024/01/28 06:44:34;;;;;;;24.80;6.40;;;;;;;3.37;87.81;102357.86;107939;1268;23695;-78
2024/01/28 06:47:25;;;;;;;35.50;7.90;;;;;;;3.35;87.83;102360.38;107956;1262;24262;-78
2024/01/28 06:50:16;;;;;;;27.10;6.50;;;;;;;3.35;87.95;102360.38;108145;1263;22580;-78
2024/01/28 06:53:08;;;;;;;18.10;4.60;;;;;;;3.34;87.95;102353.81;108554;1268;22648;-79
2024/01/28 06:55:58;;;;;;;29.30;4.80;;;;;;;3.33;87.97;102359.02;107938;1269;24365;-78
2024/01/28 06:58:50;;;;;;;24.40;4.70;;;;;;;3.32;87.97;102358.05;107860;1269;24187;-78
2024/01/28 07:01:41;;;;;;;25.60;5.00;;;;;;;3.32;88.01;102362.01;107951;1269;24365;-78
2024/01/28 07:04:31;;;;;;;33.00;6.90;;;;;;;3.34;88.02;102365.58;108076;1265;22538;-78
2024/01/28 07:07:22;;;;;;;27.70;4.70;;;;;;;3.34;88.03;102365.40;107939;1268;25473;-77
2024/01/28 07:10:14;;;;;;;21.70;3.90;;;;;;;3.34;87.99;102368.23;107820;1264;24237;-78
2024/01/28 07:13:05;;;;;;;26.80;5.80;;;;;;;3.35;88.21;102370.64;107853;1268;22541;-78
2024/01/28 07:15:56;;;;;;;22.00;4.50;;;;;;;3.39;88.13;102370.12;107818;1264;25239;-78
2024/01/28 07:18:49;;;;;;;26.10;5.20;;;;;;;3.40;88.14;102370.36;107949;1265;22528;-78
2024/01/28 07:21:40;;;;;;;30.40;5.20;;;;;;;3.40;88.14;102371.23;108188;1266;22767;-78
2024/01/28 07:24:31;;;;;;;29.00;6.00;;;;;;;3.42;88.13;102370.92;108094;1269;22579;-78
2024/01/28 07:27:22;;;;;;;28.10;4.20;;;;;;;3.42;88.16;102368.25;108239;1269;22547;-78
2024/01/28 07:30:14;;;;;;;25.00;5.20;;;;;;;3.42;88.24;102364.87;108145;1265;25386;-80
2024/01/28 07:33:08;;;;;;;24.70;4.40;;;;;;;3.45;88.27;102367.33;108084;1268;24627;-79
2024/01/28 07:35:59;;;;;;;28.60;5.20;;;;;;;3.48;88.27;102365.55;107847;1268;24348;-77
2024/01/28 07:38:51;;;;;;;31.00;5.50;;;;;;;3.51;88.22;102366.06;107872;1269;24736;-78
2024/01/28 07:41:42;;;;;;;24.30;5.50;;;;;;;3.55;88.15;102374.61;107989;1266;22597;-78
2024/01/28 07:44:32;;;;;;;25.50;4.90;;;;;;;3.56;88.19;102378.81;108127;1268;22646;-79
2024/01/28 07:47:23;;;;;;;26.60;5.10;;;;;;;3.55;88.03;102382.59;108175;1262;22613;-79
2024/01/28 07:50:14;;;;;;;23.40;4.50;;;;;;;3.55;88.09;102390.08;108247;1268;25629;-78
2024/01/28 07:53:04;;;;;;;;;;;;;;;3.55;88.17;102391.90;108345;1268;24251;-78
2024/01/28 07:55:55;;;;;;;27.90;5.20;;;;;;;3.55;88.22;102392.30;108108;1268;22655;-77
2024/01/28 07:58:46;;;;;;;22.70;4.40;;;;;;;3.56;88.11;102396.72;108156;1268;22644;-78
2024/01/28 08:01:37;;;;;;;24.60;4.50;;;;;;;3.57;88.12;102397.98;107939;1269;22565;-77
2024/01/28 08:04:28;;;;;;;20.60;3.50;;;;;;;3.56;88.09;102396.88;107947;1268;22648;-77
2024/01/28 08:07:19;;;;;;;25.50;4.60;;;;;;;3.55;88.12;102399.30;108189;1269;24378;-79
2024/01/28 08:10:11;;;;;;;32.00;4.70;;;;;;;3.56;88.19;102396.16;107912;1260;22535;-78
2024/01/28 08:13:02;;;;;;;28.70;4.90;;;;;;;3.53;88.16;102393.38;108070;1266;25378;-78
2024/01/28 08:15:59;;;;;;;27.40;4.50;;;;;;;3.52;88.31;102395.10;111332;1268;22115;-76
2024/01/28 08:18:49;;;;;;;29.20;5.20;;;;;;;3.53;88.32;102399.61;111339;1265;22160;-79
2024/01/28 08:21:40;;;;;;;25.60;4.30;;;;;;;3.53;88.35;102406.47;111216;1266;22112;-76
2024/01/28 08:24:31;;;;;;;27.50;5.00;;;;;;;3.54;88.38;102400.98;110516;1268;23007;-75
2024/01/28 08:27:22;;;;;;;26.80;4.30;;;;;;;3.56;88.33;102408.55;108024;1268;22563;-78
2024/01/28 08:30:15;;;;;;;25.00;5.00;;;;;;;3.58;88.41;102412.92;108196;1268;22778;-77
2024/01/28 08:33:06;;;;;;;24.70;4.90;;;;;;;3.60;88.34;102405.60;108103;1266;25961;-78
2024/01/28 08:35:57;;;;;;;21.20;3.40;;;;;;;3.63;88.35;102402.08;107930;1265;22616;-77
2024/01/28 08:38:49;;;;;;;17.90;4.00;;;;;;;3.64;88.35;102405.64;107839;1268;22647;-77
2024/01/28 08:41:40;;;;;;;19.60;2.70;;;;;;;3.63;88.16;102407.92;107810;1269;24439;-76
2024/01/28 08:44:31;;;;;;;22.20;3.70;;;;;;;3.66;88.39;102409.29;107813;1268;149301;-79
2024/01/28 08:47:22;;;;;;;28.10;3.50;;;;;;;3.68;88.38;102407.90;107941;1264;24245;-76
2024/01/28 08:50:13;;;;;;;20.30;3.90;;;;;;;3.71;88.40;102413.13;108154;1269;23958;-79
2024/01/28 08:53:04;;;;;;;20.50;4.00;;;;;;;3.73;88.46;102414.09;108048;1267;22600;-78
2024/01/28 08:55:55;;;;;;;23.40;3.60;;;;;;;3.75;88.40;102416.89;108035;1268;24225;-79
2024/01/28 08:58:46;;;;;;;23.00;3.50;;;;;;;3.78;88.52;102420.79;107927;1248;26358;-79
2024/01/28 09:01:37;;;;;;;22.10;3.50;;;;;;;3.82;88.31;102421.85;107842;1269;22645;-78
2024/01/28 09:04:29;;;;;;;21.70;3.50;;;;;;;3.85;88.32;102419.50;107834;1266;25279;-78
2024/01/28 09:07:20;;;;;;;19.50;2.80;;;;;;;3.87;88.27;102415.27;108088;1262;23929;-78
2024/01/28 09:10:12;;;;;;;17.20;3.30;;;;;;;3.87;88.13;102410.67;107952;1269;22583;-77
2024/01/28 09:13:03;;;;;;;22.60;3.40;;;;;;;3.88;88.11;102416.84;109309;1264;25270;-77
2024/01/28 09:15:55;;;;;;;28.00;4.20;;;;;;;3.89;88.31;102427.20;107912;1269;24237;-78
2024/01/28 09:18:46;;;;;;;20.90;3.50;;;;;;;3.93;88.25;102420.98;107897;1268;22541;-78
2024/01/28 09:21:37;;;;;;;18.20;2.70;;;;;;;3.95;88.25;102422.13;108046;1265;22648;-77
2024/01/28 09:24:28;;;;;;;25.20;3.30;;;;;;;3.98;88.28;102422.23;108306;1267;22664;-77
2024/01/28 09:27:23;;;;;;;25.90;3.10;;;;;;;3.99;87.98;102428.72;111137;1267;22875;-75
2024/01/28 09:30:14;;;;;;;16.90;2.70;;;;;;;4.02;88.03;102431.81;111231;1267;22953;-77
2024/01/28 09:33:06;;;;;;;20.30;3.10;;;;;;;4.06;88.08;102431.06;111322;1266;22164;-75
2024/01/28 09:35:58;;;;;;;21.20;3.20;;;;;;;4.10;87.90;102436.71;111192;1262;22090;-75
2024/01/28 09:38:49;;;;;;;24.10;3.70;;;;;;;4.13;87.68;102439.80;109083;1262;23862;-76
2024/01/28 09:41:49;;;;;;;20.30;2.90;;;;;;;4.15;87.58;102437.54;107915;1266;22605;-76
2024/01/28 09:44:41;;;;;;;26.20;4.70;;;;;;;4.18;87.70;102436.22;108076;1265;22586;-77
2024/01/28 09:47:33;;;;;;;26.00;4.00;;;;;;;4.19;87.53;102435.44;108023;1269;24102;-78
2024/01/28 09:50:24;;;;;;;26.80;4.80;;;;;;;4.21;87.68;102433.55;109260;1266;24337;-77
2024/01/28 09:53:15;;;;;;;26.70;3.90;;;;;;;4.24;87.72;102435.23;107986;1269;24319;-76
2024/01/28 09:56:13;;;;;;;18.10;3.00;;;;;;;4.28;87.53;102433.05;107791;1269;24215;-77
2024/01/28 09:59:05;;;;;;;19.80;3.30;;;;;;;4.30;87.64;102428.27;107953;1269;24324;-78
2024/01/28 10:01:57;;;;;;;28.90;5.00;;;;;;;4.34;87.57;102423.39;107890;1269;25953;-80
2024/01/28 10:04:48;;;;;;;23.00;4.30;;;;;;;4.36;87.49;102420.33;108050;1268;25460;-76
2024/01/28 10:07:47;;;;;;;19.60;3.60;;;;;;;4.39;87.37;102420.66;111179;1268;22218;-78
2024/01/28 10:10:39;;;;;;;31.10;4.60;;;;;;;4.39;87.24;102420.27;109437;1268;24231;-81
2024/01/28 10:13:31;;;;;;;23.40;4.80;;;;;;;4.42;87.42;102423.05;111198;1268;22280;-78
2024/01/28 10:16:25;;;;;;;26.70;4.90;;;;;;;4.45;87.31;102428.52;111242;1264;22099;-78
2024/01/28 10:19:16;;;;;;;27.30;4.10;;;;;;;4.49;87.28;102424.05;111288;1266;22157;-78
2024/01/28 10:22:08;;;;;;;26.80;4.60;;;;;;;4.53;87.32;102415.22;111274;1268;22373;-79
2024/01/28 10:24:59;;;;;;;19.60;3.70;;;;;;;4.57;87.09;102416.75;111228;1264;22171;-78
2024/01/28 10:32:45;;;;;;;24.10;4.70;;;;;;;4.71;87.13;102419.05;108129;1267;22618;-82
2024/01/28 10:35:36;;;;;;;30.40;4.60;;;;;;;4.76;86.96;102414.41;107698;1265;24361;-79
2024/01/28 10:38:28;;;;;;;21.60;4.90;;;;;;;4.82;87.17;102411.45;107709;1267;25652;-79
2024/01/28 10:41:20;;;;;;;21.30;3.80;;;;;;;4.86;86.75;102410.76;107768;1267;24341;-77
2024/01/28 10:44:13;;;;;;;25.70;5.20;;;;;;;4.89;86.87;102412.20;107936;1272;22725;-78
2024/01/28 10:47:08;;;;;;;26.90;5.00;;;;;;;4.92;86.61;102413.30;107694;1273;22682;-78
2024/01/28 10:50:05;;;;;;;25.20;4.30;;;;;;;4.95;86.53;102417.52;107984;1269;22571;-78
2024/01/28 10:52:57;;;;;;;33.50;4.50;;;;;;;4.99;86.58;102417.38;107896;1270;22690;-77
2024/01/28 10:55:48;;;;;;;24.00;4.90;;;;;;;5.02;86.57;102415.50;111067;1269;22140;-78
2024/01/28 10:58:40;;;;;;;24.90;4.60;;;;;;;5.06;86.45;102413.14;111066;1270;22235;-78
2024/01/28 11:01:33;;;;;;;23.20;3.90;;;;;;;5.08;86.18;102408.48;111055;1262;22214;-77
2024/01/28 11:04:24;;;;;;;22.10;4.20;;;;;;;5.12;86.17;102407.93;111003;1263;22534;-81
2024/01/28 11:07:19;;;;;;;26.10;4.50;;;;;;;5.16;86.13;102410.11;111032;1264;22275;-79
2024/01/28 11:10:11;;;;;;;25.90;4.20;;;;;;;5.20;85.49;102403.55;111052;1264;22425;-78
2024/01/28 11:13:04;;;;;;;24.40;3.40;;;;;;;5.25;85.53;102404.83;111049;1262;22553;-78
2024/01/28 11:15:57;;;;;;;22.90;3.90;;;;;;;5.29;85.34;102404.52;111011;1263;22432;-81
2024/01/28 11:18:58;;;;;;;23.60;3.80;;;;;;;5.35;85.40;102407.16;108845;1262;22595;-80
2024/01/28 11:21:55;;;;;;;24.30;4.40;;;;;;;5.39;85.14;102407.64;111066;1264;23037;-80
2024/01/28 11:24:52;;;;;;;21.00;3.40;;;;;;;5.42;85.15;102406.79;111048;1267;22305;-77
2024/01/28 11:27:43;;;;;;;22.30;3.20;;;;;;;5.47;85.21;102398.72;110978;1269;22342;-79
2024/01/28 11:30:37;;;;;;;26.20;4.20;;;;;;;5.50;84.98;102391.13;111029;1269;22276;-79
2024/01/28 11:33:35;;;;;;;26.60;3.30;;;;;;;5.52;84.82;102390.91;110985;1264;22051;-78
2024/01/28 11:36:30;;;;;;;23.90;3.50;;;;;;;5.56;84.71;102391.77;111014;1264;23014;-78
2024/01/28 11:39:37;;;;;;;21.90;4.10;;;;;;;5.60;84.59;102386.02;110931;1250;22514;-80
2024/01/28 11:42:29;;;;;;;23.20;3.90;;;;;;;5.65;84.70;102376.60;110920;1271;22332;-76
2024/01/28 11:45:21;;;;;;;26.50;4.90;;;;;;;5.67;84.49;102375.02;108184;1270;22715;-77
2024/01/28 11:48:12;;;;;;;23.70;4.00;;;;;;;5.68;84.39;102373.52;107815;1271;24353;-76
2024/01/28 11:51:09;;;;;;;33.70;4.60;;;;;;;5.69;84.38;102370.18;107862;1271;24189;-77
2024/01/28 11:54:00;;;;;;;23.30;4.20;;;;;;;5.70;84.29;102370.75;107723;1271;24199;-77
2024/01/28 11:56:52;;;;;;;23.20;4.10;;;;;;;5.73;84.30;102365.52;107803;1267;24528;-77
2024/01/28 11:59:42;;;;;;;33.20;4.10;;;;;;;5.78;84.22;102354.45;107806;1269;25356;-77
2024/01/28 12:02:33;;;;;;;23.40;4.20;;;;;;;5.85;84.36;102353.20;107829;1266;22752;-77
2024/01/28 12:05:24;;;;;;;26.90;4.60;;;;;;;5.91;84.24;102348.53;107642;1267;22730;-77
2024/01/28 12:08:27;;;;;;;27.70;4.30;;;;;;;5.95;84.10;102350.84;107782;1271;22547;-77
2024/01/28 12:11:21;;;;;;;28.30;3.80;;;;;;;5.95;83.84;102341.71;110780;1264;22385;-78
2024/01/28 12:14:12;;;;;;;29.50;5.90;;;;;;;5.99;83.78;102340.20;110912;1264;23276;-78
2024/01/28 12:17:03;;;;;;;26.40;3.70;;;;;;;6.01;83.60;102336.01;107839;1264;22624;-78
2024/01/28 12:19:56;;;;;;;25.40;4.80;;;;;;;6.04;83.60;102337.83;107858;1264;22572;-77
2024/01/28 12:22:47;;;;;;;17.20;3.90;;;;;;;6.06;83.41;102334.19;107924;1256;24344;-80
2024/01/28 12:25:40;;;;;;;19.60;4.20;;;;;;;6.08;83.14;102332.92;107892;1271;22541;-77
2024/01/28 12:28:31;;;;;;;19.20;3.30;;;;;;;6.09;82.86;102329.35;107713;1264;23534;-77
2024/01/28 12:31:23;;;;;;;26.10;4.30;;;;;;;6.09;82.70;102324.20;107728;1264;22585;-79
2024/01/28 12:34:17;;;;;;;24.70;4.60;;;;;;;6.09;82.61;102318.09;108521;1269;25400;-78
2024/01/28 12:37:08;;;;;;;20.50;4.20;;;;;;;6.11;82.84;102315.40;108297;1270;24369;-76
2024/01/28 12:39:59;;;;;;;15.50;3.30;;;;;;;6.12;82.81;102316.35;108175;1264;23005;-77
2024/01/28 12:42:50;;;;;;;29.80;4.90;;;;;;;6.12;82.56;102316.91;108134;1268;22534;-80
2024/01/28 12:45:42;;;;;;;23.20;3.80;;;;;;;6.13;82.79;102322.13;108547;1267;24357;-76
2024/01/28 12:48:33;;;;;;;28.80;3.60;;;;;;;6.17;82.57;102316.89;107884;1269;23070;-77
2024/01/28 12:51:24;;;;;;;19.30;2.30;;;;;;;6.18;82.40;102318.23;108101;1263;24056;-77
2024/01/28 12:54:16;;;;;;;21.40;4.20;;;;;;;6.22;82.51;102321.00;107890;1272;22630;-77
2024/01/28 12:57:07;;;;;;;17.00;2.80;;;;;;;6.26;82.50;102321.48;108037;1263;22527;-81
2024/01/28 12:59:59;;;;;;;23.20;3.70;;;;;;;6.29;81.92;102315.84;108464;1270;22574;-77
2024/01/28 13:02:51;;;;;;;17.60;2.80;;;;;;;6.33;81.79;102317.42;108454;1262;22615;-78
2024/01/28 13:05:42;;;;;;;20.60;2.90;;;;;;;6.38;81.67;102316.30;107980;1261;22722;-79
2024/01/28 13:08:33;;;;;;;14.10;1.60;;;;;;;6.46;81.87;102314.14;107894;1264;23449;-78
2024/01/28 13:11:24;;;;;;;12.50;1.80;;;;;;;6.57;81.73;102306.96;107946;1263;24355;-79
2024/01/28 13:14:15;;;;;;;11.00;1.40;;;;;;;6.67;80.95;102311.60;107983;1263;22615;-77
2024/01/28 13:17:07;;;;;;;13.90;1.40;;;;;;;6.74;80.79;102301.51;107952;1271;22526;-79